createdAt,value
2023-02-27T00:02:09.230Z,81.61
2023-02-27T00:04:38.016Z,82.08
2023-02-27T00:07:07.258Z,81.22
2023-02-27T00:09:36.023Z,82.15
2023-02-27T00:12:04.659Z,82.02
2023-02-27T00:14:32.783Z,82.06
2023-02-27T00:17:02.756Z,81.94
2023-02-27T00:19:31.322Z,82.15
2023-02-27T00:21:59.450Z,81.81
2023-02-27T00:24:27.905Z,81.62
2023-02-27T00:26:56.488Z,81.27
2023-02-27T00:29:24.935Z,81.96
2023-02-27T00:31:53.646Z,82.26
2023-02-27T00:34:24.019Z,82.00
2023-02-27T00:36:52.214Z,81.90
2023-02-27T00:39:20.350Z,81.73
2023-02-27T00:41:49.073Z,81.89
2023-02-27T00:44:17.320Z,81.73
2023-02-27T00:46:45.482Z,81.62
2023-02-27T00:49:14.219Z,82.15
2023-02-27T00:51:43.597Z,82.13
2023-02-27T00:54:11.594Z,81.84
2023-02-27T00:56:41.608Z,82.01
2023-02-27T00:59:10.132Z,82.20
2023-02-27T01:01:38.434Z,82.07
2023-02-27T01:04:07.251Z,82.36
2023-02-27T01:06:35.390Z,82.30
2023-02-27T01:09:05.527Z,82.09
2023-02-27T01:11:34.405Z,82.30
2023-02-27T01:14:03.182Z,81.51
2023-02-27T01:16:31.671Z,81.77
2023-02-27T01:19:00.370Z,82.18
2023-02-27T01:21:29.669Z,81.53
2023-02-27T01:23:58.087Z,81.74
2023-02-27T01:26:28.312Z,81.82
2023-02-27T01:28:56.591Z,82.16
2023-02-27T01:31:24.947Z,82.03
2023-02-27T01:33:54.008Z,81.62
2023-02-27T01:36:22.715Z,81.99
2023-02-27T01:38:51.065Z,81.68
2023-02-27T01:41:19.855Z,81.61
2023-02-27T01:44:01.229Z,81.59
2023-02-27T01:46:30.487Z,81.67
2023-02-27T01:49:01.624Z,81.32
2023-02-27T01:51:35.224Z,81.59
2023-02-27T01:54:07.293Z,81.22
2023-02-27T01:56:36.260Z,81.34
2023-02-27T01:59:11.113Z,81.13
2023-02-27T02:01:40.397Z,81.09
2023-02-27T02:04:13.965Z,81.35
2023-02-27T02:06:48.399Z,80.84
2023-02-27T02:09:19.029Z,80.73
2023-02-27T02:11:47.040Z,81.10
2023-02-27T02:14:17.011Z,80.57
2023-02-27T02:17:12.314Z,80.28
2023-02-27T02:20:13.989Z,80.33
2023-02-27T02:23:17.190Z,79.94
2023-02-27T02:26:31.042Z,80.31
2023-02-27T02:29:34.569Z,79.67
2023-02-27T02:32:40.131Z,79.48
2023-02-27T02:35:45.738Z,79.49
2023-02-27T02:38:50.372Z,79.01
2023-02-27T02:41:29.299Z,78.90
2023-02-27T02:44:06.578Z,78.72
2023-02-27T02:46:45.644Z,78.35
2023-02-27T02:49:23.730Z,78.41
2023-02-27T02:52:01.770Z,78.34
2023-02-27T02:54:38.364Z,77.76
2023-02-27T02:57:13.209Z,77.67
2023-02-27T02:59:47.260Z,77.41
2023-02-27T03:02:19.692Z,77.21
2023-02-27T03:04:55.709Z,77.30
2023-02-27T03:07:31.799Z,76.99
2023-02-27T03:10:06.260Z,77.93
2023-02-27T03:12:40.771Z,77.25
2023-02-27T03:15:17.755Z,76.78
2023-02-27T03:17:52.245Z,76.56
2023-02-27T03:20:28.532Z,76.91
2023-02-27T03:23:01.113Z,77.70
2023-02-27T03:25:30.605Z,78.86
2023-02-27T03:28:05.345Z,79.23
2023-02-27T03:30:39.066Z,79.27
2023-02-27T03:33:14.494Z,80.49
2023-02-27T03:35:51.256Z,80.17
2023-02-27T03:38:26.048Z,80.32
2023-02-27T03:41:07.600Z,80.09
2023-02-27T03:43:46.797Z,79.59
2023-02-27T03:46:19.879Z,79.76
2023-02-27T03:48:49.189Z,81.13
2023-02-27T03:51:21.295Z,82.26
2023-02-27T03:53:53.372Z,81.93
2023-02-27T03:56:26.174Z,82.71
2023-02-27T03:58:57.870Z,82.65
2023-02-27T04:01:27.242Z,82.32
2023-02-27T04:04:02.834Z,82.50
2023-02-27T04:06:50.917Z,83.01
2023-02-27T04:09:28.673Z,82.80
2023-02-27T04:12:17.579Z,82.30
2023-02-27T04:14:58.909Z,82.71
2023-02-27T04:17:31.634Z,83.23
2023-02-27T04:20:22.073Z,82.49
2023-02-27T04:22:56.792Z,82.96
2023-02-27T04:25:43.056Z,84.45
2023-02-27T04:28:18.842Z,82.60
2023-02-27T04:30:59.734Z,83.35
2023-02-27T04:33:38.513Z,82.94
2023-02-27T04:36:12.936Z,82.78
2023-02-27T04:38:45.580Z,84.14
2023-02-27T04:41:18.193Z,84.09
2023-02-27T04:43:48.006Z,82.95
2023-02-27T04:46:22.270Z,83.58
2023-02-27T04:48:55.589Z,83.62
2023-02-27T04:51:29.119Z,83.08
2023-02-27T04:54:02.004Z,83.44
2023-02-27T04:56:35.448Z,83.12
2023-02-27T04:59:11.590Z,83.13
2023-02-27T05:01:45.643Z,82.93
2023-02-27T05:04:20.469Z,83.26
2023-02-27T05:06:50.556Z,83.20
2023-02-27T05:09:25.792Z,82.74
2023-02-27T05:11:58.118Z,82.56
2023-02-27T05:14:33.484Z,82.58
2023-02-27T05:17:08.643Z,83.30
2023-02-27T05:19:41.977Z,82.84
2023-02-27T05:22:21.895Z,83.05
2023-02-27T05:24:58.560Z,82.93
2023-02-27T05:27:35.130Z,83.29
2023-02-27T05:30:07.973Z,83.39
2023-02-27T05:32:43.823Z,82.95
2023-02-27T05:35:21.829Z,82.94
2023-02-27T05:37:55.094Z,83.71
2023-02-27T05:40:26.957Z,83.71
2023-02-27T05:43:02.271Z,83.61
2023-02-27T05:45:35.037Z,84.11
2023-02-27T05:48:08.394Z,83.38
2023-02-27T05:50:39.450Z,83.11
2023-02-27T05:53:15.331Z,84.21
2023-02-27T05:55:47.477Z,83.62
2023-02-27T05:58:21.939Z,83.50
2023-02-27T06:00:55.173Z,83.48
2023-02-27T06:03:26.452Z,83.46
2023-02-27T06:05:57.434Z,83.03
2023-02-27T06:08:26.222Z,82.99
2023-02-27T06:10:55.197Z,82.99
2023-02-27T06:13:24.595Z,82.86
2023-02-27T06:15:53.125Z,82.67
2023-02-27T06:18:21.792Z,82.71
2023-02-27T06:20:52.947Z,82.72
2023-02-27T06:23:21.293Z,82.75
2023-02-27T06:25:50.302Z,82.83
2023-02-27T06:28:19.384Z,82.39
2023-02-27T06:30:49.167Z,82.62
2023-02-27T06:33:18.307Z,82.01
2023-02-27T06:35:50.257Z,81.85
2023-02-27T06:38:19.949Z,82.67
2023-02-27T06:40:48.452Z,78.19
2023-02-27T06:43:18.183Z,74.44
2023-02-27T06:45:46.670Z,69.79
2023-02-27T06:48:14.939Z,66.81
2023-02-27T06:50:43.925Z,62.35
2023-02-27T06:53:12.240Z,61.53
2023-02-27T06:55:42.245Z,57.61
2023-02-27T06:58:11.252Z,56.61
2023-02-27T07:00:39.591Z,55.73
2023-02-27T07:03:07.875Z,53.61
2023-02-27T07:05:36.680Z,51.82
2023-02-27T07:08:05.162Z,49.96
2023-02-27T07:10:33.358Z,52.19
2023-02-27T07:13:03.965Z,50.53
2023-02-27T07:15:33.728Z,46.56
2023-02-27T07:18:02.134Z,48.83
2023-02-27T07:20:30.732Z,45.57
2023-02-27T07:22:59.208Z,45.74
2023-02-27T07:25:28.218Z,43.98
2023-02-27T07:27:56.850Z,46.69
2023-02-27T07:30:26.794Z,45.80
2023-02-27T07:32:55.294Z,43.48
2023-02-27T07:35:24.131Z,42.52
2023-02-27T07:37:52.407Z,44.88
2023-02-27T07:40:22.357Z,43.30
2023-02-27T07:42:53.225Z,39.08
2023-02-27T07:45:23.644Z,43.84
2023-02-27T07:47:53.162Z,48.16
2023-02-27T07:50:24.906Z,48.03
2023-02-27T07:52:54.266Z,50.22
2023-02-27T07:55:22.523Z,47.11
2023-02-27T07:57:53.283Z,44.14
2023-02-27T08:00:22.380Z,47.61
2023-02-27T08:02:52.661Z,49.77
2023-02-27T08:05:21.830Z,45.97
2023-02-27T08:07:51.188Z,43.56
2023-02-27T08:10:23.202Z,48.15
2023-02-27T08:12:55.378Z,45.74
2023-02-27T08:15:24.948Z,43.07
2023-02-27T08:17:57.155Z,43.34
2023-02-27T08:20:25.805Z,45.44
2023-02-27T08:22:54.061Z,42.97
2023-02-27T08:25:23.175Z,41.52
2023-02-27T08:27:53.191Z,40.93
2023-02-27T08:30:21.436Z,43.99
2023-02-27T08:32:51.508Z,44.38
2023-02-27T08:35:21.800Z,50.20
2023-02-27T08:37:50.485Z,51.37
2023-02-27T08:40:19.225Z,48.97
2023-02-27T08:42:49.313Z,44.29
2023-02-27T08:45:17.994Z,44.87
2023-02-27T08:47:46.604Z,45.77
2023-02-27T08:50:15.750Z,43.18
2023-02-27T08:52:45.085Z,43.07
2023-02-27T08:55:13.671Z,42.71
2023-02-27T08:57:42.511Z,44.83
2023-02-27T09:00:14.741Z,43.65
2023-02-27T09:02:45.429Z,41.89
2023-02-27T09:05:13.646Z,38.99
2023-02-27T09:07:52.651Z,37.89
2023-02-27T09:10:22.683Z,41.13
2023-02-27T09:12:51.389Z,41.07
2023-02-27T09:15:20.993Z,41.98
2023-02-27T09:17:50.961Z,39.87
2023-02-27T09:20:19.255Z,40.89
2023-02-27T09:22:48.727Z,39.17
2023-02-27T09:25:18.067Z,40.58
2023-02-27T09:27:48.395Z,40.37
2023-02-27T09:30:16.748Z,42.04
2023-02-27T09:32:45.799Z,39.59
2023-02-27T09:35:15.836Z,39.39
2023-02-27T09:37:44.953Z,39.07
2023-02-27T09:40:22.237Z,39.98
2023-02-27T09:42:53.729Z,38.82
2023-02-27T09:45:25.574Z,40.16
2023-02-27T09:47:57.938Z,42.16
2023-02-27T09:50:49.846Z,43.75
2023-02-27T09:53:27.386Z,42.61
2023-02-27T09:56:02.082Z,42.52
2023-02-27T09:58:44.634Z,45.48
2023-02-27T10:01:20.603Z,46.60
2023-02-27T10:04:22.329Z,47.08
2023-02-27T10:06:55.035Z,47.72
2023-02-27T10:09:34.034Z,48.35
2023-02-27T10:12:15.821Z,46.99
2023-02-27T10:14:47.056Z,47.11
2023-02-27T10:17:23.112Z,47.24
2023-02-27T10:19:53.578Z,48.06
2023-02-27T10:22:30.577Z,47.36
2023-02-27T10:25:08.953Z,47.47
2023-02-27T10:27:46.332Z,47.93
2023-02-27T10:30:29.469Z,47.10
2023-02-27T10:33:09.103Z,46.35
2023-02-27T10:35:40.409Z,45.44
2023-02-27T10:38:14.789Z,45.22
2023-02-27T10:40:44.471Z,43.27
2023-02-27T10:43:19.368Z,43.71
2023-02-27T10:45:47.684Z,43.68
2023-02-27T10:48:16.805Z,43.52
2023-02-27T10:50:47.955Z,43.24
2023-02-27T10:53:22.036Z,43.08
2023-02-27T10:56:00.803Z,43.78
2023-02-27T10:58:34.917Z,43.59
2023-02-27T11:01:06.311Z,42.70
2023-02-27T11:03:38.229Z,44.58
2023-02-27T11:06:11.788Z,46.37
2023-02-27T11:08:40.694Z,46.82
2023-02-27T11:11:12.569Z,47.28
2023-02-27T11:13:43.998Z,46.67
2023-02-27T11:16:15.842Z,45.58
2023-02-27T11:18:45.403Z,46.22
2023-02-27T11:21:21.445Z,45.13
2023-02-27T11:23:57.198Z,45.67
2023-02-27T11:26:33.544Z,46.09
2023-02-27T11:29:15.075Z,45.76
2023-02-27T11:31:50.108Z,45.49
2023-02-27T11:34:34.125Z,46.02
2023-02-27T11:37:05.659Z,45.99
2023-02-27T11:39:38.340Z,44.87
2023-02-27T11:42:20.427Z,44.98
2023-02-27T11:45:03.574Z,45.76
2023-02-27T11:47:36.309Z,44.37
2023-02-27T11:50:35.468Z,45.84
2023-02-27T11:53:22.555Z,46.02
2023-02-27T11:55:57.244Z,44.65
2023-02-27T11:58:30.515Z,45.08
2023-02-27T12:01:10.733Z,45.07
2023-02-27T12:03:48.840Z,44.77
2023-02-27T12:06:27.016Z,43.55
2023-02-27T12:09:01.864Z,43.33
2023-02-27T12:11:37.218Z,44.57
2023-02-27T12:14:17.478Z,43.57
2023-02-27T12:16:52.330Z,45.44
2023-02-27T12:19:27.697Z,46.96
2023-02-27T12:22:01.188Z,47.12
2023-02-27T12:24:35.288Z,47.36
2023-02-27T12:27:14.928Z,50.35
2023-02-27T12:29:49.703Z,51.85
2023-02-27T12:32:25.244Z,53.11
2023-02-27T12:34:56.922Z,52.70
2023-02-27T12:37:28.081Z,51.66
2023-02-27T12:40:00.049Z,51.27
2023-02-27T12:42:49.595Z,52.12
2023-02-27T12:45:54.763Z,53.03
2023-02-27T12:48:37.163Z,51.85
2023-02-27T12:51:19.928Z,52.60
2023-02-27T12:54:12.270Z,53.69
2023-02-27T12:56:52.464Z,53.52
2023-02-27T12:59:35.880Z,53.90
2023-02-27T13:02:20.041Z,53.48
2023-02-27T13:05:01.467Z,54.65
2023-02-27T13:07:36.431Z,54.60
2023-02-27T13:10:12.740Z,54.00
2023-02-27T13:12:46.684Z,56.23
2023-02-27T13:15:19.828Z,57.16
2023-02-27T13:17:52.516Z,55.51
2023-02-27T13:20:40.646Z,54.56
2023-02-27T13:23:20.499Z,56.85
2023-02-27T13:25:52.248Z,58.46
2023-02-27T13:28:26.785Z,60.07
2023-02-27T13:31:08.473Z,61.72
2023-02-27T13:33:44.057Z,61.47
2023-02-27T13:36:18.113Z,61.49
2023-02-27T13:38:48.319Z,62.20
2023-02-27T13:41:39.027Z,63.35
2023-02-27T13:44:46.980Z,63.54
2023-02-27T13:47:40.826Z,64.26
2023-02-27T13:50:46.894Z,63.04
2023-02-27T13:53:20.793Z,62.75
2023-02-27T13:55:49.600Z,64.30
2023-02-27T13:58:24.651Z,63.00
2023-02-27T14:01:00.439Z,63.30
2023-02-27T14:03:32.840Z,62.83
2023-02-27T14:06:07.467Z,63.13
2023-02-27T14:08:50.508Z,63.42
2023-02-27T14:11:24.400Z,64.24
2023-02-27T14:14:08.102Z,63.88
2023-02-27T14:17:07.569Z,63.74
2023-02-27T14:19:50.405Z,62.97
2023-02-27T14:23:09.091Z,62.94
2023-02-27T14:25:43.146Z,61.59
2023-02-27T14:28:23.635Z,60.87
2023-02-27T14:30:58.948Z,58.64
2023-02-27T14:33:40.077Z,57.62
2023-02-27T14:36:16.059Z,55.96
2023-02-27T14:38:45.080Z,55.38
2023-02-27T14:41:32.916Z,54.36
2023-02-27T14:44:01.827Z,55.44
2023-02-27T14:46:32.402Z,56.63
2023-02-27T14:49:03.491Z,59.27
2023-02-27T14:51:33.969Z,61.75
2023-02-27T14:54:05.799Z,63.01
2023-02-27T14:56:37.989Z,64.29
2023-02-27T14:59:23.697Z,65.60
2023-02-27T15:01:53.160Z,66.06
2023-02-27T15:04:24.426Z,67.48
2023-02-27T15:06:54.579Z,67.60
2023-02-27T15:09:26.039Z,65.94
2023-02-27T15:12:03.958Z,66.21
2023-02-27T15:14:36.439Z,66.15
2023-02-27T15:17:05.289Z,66.48
2023-02-27T15:19:33.874Z,67.49
2023-02-27T15:22:05.679Z,67.69
2023-02-27T15:24:49.174Z,68.00
2023-02-27T15:27:22.628Z,68.39
2023-02-27T15:29:53.328Z,68.23
2023-02-27T15:32:29.273Z,69.25
2023-02-27T15:34:59.130Z,67.74
2023-02-27T15:37:31.279Z,68.46
2023-02-27T15:40:01.575Z,67.53
2023-02-27T15:42:37.119Z,67.58
2023-02-27T15:45:06.882Z,69.03
2023-02-27T15:47:37.149Z,68.65
2023-02-27T15:50:12.906Z,69.07
2023-02-27T15:52:44.242Z,69.28
2023-02-27T15:55:15.803Z,70.21
2023-02-27T15:58:00.682Z,70.38
2023-02-27T16:00:32.367Z,70.66
2023-02-27T16:03:01.716Z,71.64
2023-02-27T16:05:37.367Z,71.82
2023-02-27T16:08:07.472Z,73.52
2023-02-27T16:10:38.736Z,74.29
2023-02-27T16:13:35.485Z,74.52
2023-02-27T16:16:06.947Z,74.16
2023-02-27T16:18:38.861Z,73.39
2023-02-27T16:21:13.406Z,73.46
2023-02-27T16:23:42.913Z,73.71
2023-02-27T16:26:28.437Z,73.63
2023-02-27T16:29:01.373Z,73.74
2023-02-27T16:31:32.024Z,74.01
2023-02-27T16:34:02.410Z,74.48
2023-02-27T16:36:34.356Z,75.17
2023-02-27T16:39:03.262Z,75.39
2023-02-27T16:41:31.495Z,76.28
2023-02-27T16:44:01.767Z,76.79
2023-02-27T16:46:31.103Z,76.56
2023-02-27T16:49:14.192Z,77.62
2023-02-27T16:51:48.310Z,77.14
2023-02-27T16:54:16.748Z,77.80
2023-02-27T16:56:47.022Z,77.71
2023-02-27T16:59:30.792Z,77.87
2023-02-27T17:02:00.242Z,77.63
2023-02-27T17:04:30.433Z,78.26
2023-02-27T17:07:00.927Z,78.22
2023-02-27T17:09:29.511Z,77.96
2023-02-27T17:11:58.657Z,77.95
2023-02-27T17:14:28.661Z,78.34
2023-02-27T17:16:58.428Z,78.08
2023-02-27T17:19:27.234Z,78.11
2023-02-27T17:21:56.637Z,77.97
2023-02-27T17:24:24.774Z,77.78
2023-02-27T17:26:53.002Z,77.76
2023-02-27T17:29:21.778Z,77.81
2023-02-27T17:31:51.934Z,77.39
2023-02-27T17:34:20.220Z,77.24
2023-02-27T17:36:50.661Z,77.28
2023-02-27T17:39:18.724Z,76.39
2023-02-27T17:41:47.720Z,76.37
2023-02-27T17:44:16.726Z,76.81
2023-02-27T17:46:44.872Z,75.92
2023-02-27T17:49:14.471Z,75.22
2023-02-27T17:51:43.334Z,74.78
2023-02-27T17:54:11.413Z,74.61
2023-02-27T17:56:40.544Z,74.25
2023-02-27T17:59:08.919Z,74.93
2023-02-27T18:01:37.275Z,75.06
2023-02-27T18:04:07.573Z,74.67
2023-02-27T18:06:37.707Z,75.93
2023-02-27T18:09:06.978Z,76.11
2023-02-27T18:11:37.919Z,76.50
2023-02-27T18:14:06.814Z,76.61
2023-02-27T18:16:35.620Z,77.12
2023-02-27T18:19:04.814Z,76.72
2023-02-27T18:21:33.789Z,76.18
2023-02-27T18:24:04.586Z,75.99
2023-02-27T18:26:35.000Z,76.38
2023-02-27T18:29:06.388Z,75.03
2023-02-27T18:31:37.782Z,75.43
2023-02-27T18:34:06.783Z,75.21
2023-02-27T18:36:35.608Z,75.13
2023-02-27T18:39:06.543Z,74.89
2023-02-27T18:41:35.761Z,74.19
2023-02-27T18:44:04.561Z,74.86
2023-02-27T18:46:33.318Z,74.89
2023-02-27T18:49:01.676Z,74.90
2023-02-27T18:51:30.375Z,74.61
2023-02-27T18:54:00.141Z,75.41
2023-02-27T18:56:33.241Z,75.39
2023-02-27T18:59:05.532Z,76.31
2023-02-27T19:01:36.287Z,75.87
2023-02-27T19:04:06.430Z,75.52
2023-02-27T19:06:37.114Z,76.68
2023-02-27T19:09:06.608Z,75.46
2023-02-27T19:11:36.105Z,74.81
2023-02-27T19:14:06.842Z,74.98
2023-02-27T19:16:35.737Z,74.93
2023-02-27T19:19:05.799Z,75.26
2023-02-27T19:21:35.604Z,75.53
2023-02-27T19:24:04.405Z,76.02
2023-02-27T19:26:35.207Z,76.23
2023-02-27T19:29:03.778Z,76.35
2023-02-27T19:31:32.684Z,76.52
2023-02-27T19:34:00.723Z,76.03
2023-02-27T19:36:31.292Z,76.60
2023-02-27T19:38:59.884Z,76.07
2023-02-27T19:41:28.824Z,76.07
2023-02-27T19:43:58.614Z,76.01
2023-02-27T19:46:29.889Z,76.59
2023-02-27T19:49:02.060Z,77.05
2023-02-27T19:51:29.992Z,76.98
2023-02-27T19:53:57.920Z,76.32
2023-02-27T19:56:27.732Z,75.68
2023-02-27T19:58:57.814Z,76.14
2023-02-27T20:01:28.302Z,76.30
2023-02-27T20:03:59.284Z,75.83
2023-02-27T20:06:29.943Z,76.14
2023-02-27T20:08:59.734Z,76.29
2023-02-27T20:11:32.900Z,75.88
2023-02-27T20:14:02.788Z,75.85
2023-02-27T20:16:34.892Z,75.36
2023-02-27T20:19:03.741Z,75.00
2023-02-27T20:21:33.170Z,75.94
2023-02-27T20:24:02.178Z,74.62
2023-02-27T20:26:32.446Z,74.24
2023-02-27T20:29:04.325Z,74.29
2023-02-27T20:31:35.338Z,74.51
2023-02-27T20:34:06.493Z,74.11
2023-02-27T20:36:35.832Z,74.68
2023-02-27T20:39:04.693Z,73.59
2023-02-27T20:41:33.766Z,72.82
2023-02-27T20:44:03.344Z,72.51
2023-02-27T20:46:31.256Z,71.82
2023-02-27T20:49:01.593Z,71.06
2023-02-27T20:51:31.685Z,71.32
2023-02-27T20:54:01.678Z,70.99
2023-02-27T20:56:32.190Z,70.90
2023-02-27T20:59:02.706Z,69.42
2023-02-27T21:01:32.982Z,70.41
2023-02-27T21:04:01.813Z,69.74
2023-02-27T21:06:30.887Z,69.36
2023-02-27T21:09:00.107Z,69.63
2023-02-27T21:11:30.715Z,69.36
2023-02-27T21:14:01.622Z,69.98
2023-02-27T21:16:30.896Z,69.45
2023-02-27T21:18:59.277Z,68.83
2023-02-27T21:21:30.209Z,69.19
2023-02-27T21:23:59.794Z,71.16
2023-02-27T21:26:32.357Z,70.61
2023-02-27T21:29:05.002Z,70.67
2023-02-27T21:31:37.071Z,71.24
2023-02-27T21:34:08.135Z,71.54
2023-02-27T21:36:38.705Z,71.41
2023-02-27T21:39:08.386Z,73.16
2023-02-27T21:41:36.690Z,73.52
2023-02-27T21:44:08.384Z,73.56
2023-02-27T21:46:38.588Z,74.78
2023-02-27T21:49:07.008Z,74.55
2023-02-27T21:51:41.056Z,74.42
2023-02-27T21:54:11.576Z,74.12
2023-02-27T21:56:40.508Z,73.87
2023-02-27T21:59:08.618Z,74.31
2023-02-27T22:01:38.711Z,73.97
2023-02-27T22:04:08.018Z,74.37
2023-02-27T22:06:37.005Z,73.87
2023-02-27T22:09:06.676Z,74.33
2023-02-27T22:11:36.099Z,73.34
2023-02-27T22:14:06.467Z,73.19
2023-02-27T22:16:35.150Z,74.01
2023-02-27T22:19:08.609Z,72.86
2023-02-27T22:21:37.927Z,73.03
2023-02-27T22:24:07.227Z,73.06
2023-02-27T22:26:36.176Z,73.68
2023-02-27T22:29:07.419Z,73.44
2023-02-27T22:31:37.926Z,74.16
2023-02-27T22:34:09.171Z,73.13
2023-02-27T22:36:38.708Z,74.39
2023-02-27T22:39:07.338Z,74.04
2023-02-27T22:41:37.357Z,73.29
2023-02-27T22:44:06.436Z,73.77
2023-02-27T22:46:36.951Z,74.27
2023-02-27T22:49:08.742Z,73.97
2023-02-27T22:51:37.505Z,75.01
2023-02-27T22:54:07.174Z,74.43
2023-02-27T22:56:37.454Z,73.64
2023-02-27T22:59:06.243Z,74.95
2023-02-27T23:01:37.790Z,74.81
2023-02-27T23:04:11.567Z,74.47
2023-02-27T23:06:43.706Z,75.50
2023-02-27T23:09:14.800Z,74.77
2023-02-27T23:11:43.461Z,75.48
2023-02-27T23:14:11.523Z,75.50
2023-02-27T23:16:40.093Z,77.17
2023-02-27T23:19:10.306Z,76.62
2023-02-27T23:21:40.199Z,76.12
2023-02-27T23:24:11.905Z,77.05
2023-02-27T23:26:41.251Z,77.10
2023-02-27T23:29:10.078Z,76.86
2023-02-27T23:31:39.438Z,76.81
2023-02-27T23:34:09.537Z,77.34
2023-02-27T23:36:39.276Z,76.80
2023-02-27T23:39:07.997Z,77.70
2023-02-27T23:41:36.176Z,77.46
2023-02-27T23:44:04.803Z,77.63
2023-02-27T23:46:33.164Z,77.78
2023-02-27T23:49:01.947Z,78.00
2023-02-27T23:51:32.461Z,78.33
2023-02-27T23:54:01.044Z,78.19
2023-02-27T23:56:30.380Z,78.16
2023-02-27T23:59:00.835Z,78.33
